Time;durP1;ratioP1;P1;durP2;ratioP2;P2;SDS_P1;SDS_P2;PMS_P1;PMS_P2;Temp;Humidity;BMP_temperature;BMP_pressure;BME280_temperature;BME280_humidity;BME280_pressure;Samples;Min_cycle;Max_cycle;Signal;HPM_P1;HPM_P2
2023/04/18 00:02:28;;;;;;;21.15;12.63;;;8.20;99.90;;;;;;7571667;19;20029;-74
2023/04/18 00:05:00;;;;;;;20.07;13.20;;;8.20;99.90;;;;;;7568476;19;20081;-73
2023/04/18 00:07:36;;;;;;;20.67;12.97;;;8.20;99.90;;;;;;7589087;19;20528;-75
2023/04/18 00:10:09;;;;;;;20.00;12.63;;;8.20;99.90;;;;;;7583498;19;20600;-73
2023/04/18 00:12:41;;;;;;;20.80;13.90;;;8.20;99.90;;;;;;7591533;19;20013;-73
2023/04/18 00:15:14;;;;;;;21.37;13.27;;;8.20;99.90;;;;;;7571155;19;20011;-74
2023/04/18 00:17:47;;;;;;;20.20;12.67;;;8.20;99.90;;;;;;7584148;19;20312;-74
2023/04/18 00:20:19;;;;;;;23.05;13.57;;;8.10;99.90;;;;;;7549343;19;20924;-75
2023/04/18 00:22:52;;;;;;;21.05;13.80;;;8.10;99.90;;;;;;7593382;19;20022;-75
2023/04/18 00:25:24;;;;;;;21.80;12.85;;;8.00;99.90;;;;;;7592950;19;20026;-74
2023/04/18 00:27:56;;;;;;;20.85;13.60;;;8.10;99.90;;;;;;7592677;19;20014;-74
2023/04/18 00:30:28;;;;;;;24.90;15.30;;;8.10;99.90;;;;;;7565263;19;20045;-74
2023/04/18 00:33:01;;;;;;;23.63;14.23;;;8.00;99.90;;;;;;7568532;19;20014;-74
2023/04/18 00:35:33;;;;;;;23.90;14.30;;;8.00;99.90;;;;;;7588613;19;20617;-74
2023/04/18 00:38:05;;;;;;;23.45;15.32;;;8.00;99.90;;;;;;7563835;19;20022;-74
2023/04/18 00:40:37;;;;;;;24.48;15.30;;;8.00;99.90;;;;;;7567764;19;20395;-74
2023/04/18 00:43:12;;;;;;;23.85;15.48;;;7.90;99.90;;;;;;7575354;19;20078;-76
2023/04/18 00:45:44;;;;;;;22.75;14.93;;;8.00;99.90;;;;;;7589662;19;20145;-74
2023/04/18 00:48:17;;;;;;;24.13;14.80;;;8.00;99.90;;;;;;7565164;19;20029;-73
2023/04/18 00:50:49;;;;;;;23.80;15.75;;;8.00;99.90;;;;;;7587968;19;20024;-75
2023/04/18 00:53:22;;;;;;;26.25;16.55;;;7.90;99.90;;;;;;7571472;19;20036;-75
2023/04/18 00:55:54;;;;;;;31.57;17.97;;;7.90;99.90;;;;;;7580123;19;20014;-73
2023/04/18 00:58:27;;;;;;;26.63;16.13;;;7.90;99.90;;;;;;7574513;19;20014;-74
2023/04/18 01:00:59;;;;;;;29.35;17.45;;;7.90;99.90;;;;;;7585479;19;20029;-74
2023/04/18 01:03:31;;;;;;;27.35;16.17;;;7.90;99.90;;;;;;7580802;19;20018;-74
2023/04/18 01:06:05;;;;;;;28.70;17.00;;;7.90;99.90;;;;;;7587116;19;20490;-73
2023/04/18 01:08:37;;;;;;;25.08;16.13;;;7.90;99.90;;;;;;7575228;19;20350;-74
2023/04/18 01:11:09;;;;;;;27.50;17.40;;;7.90;99.90;;;;;;7572509;19;20094;-75
2023/04/18 01:14:00;;;;;;;26.73;16.58;;;7.90;99.90;;;;;;7568597;19;20018;-75
2023/04/18 01:16:33;;;;;;;28.20;17.10;;;7.90;99.90;;;;;;7584480;19;20025;-74
2023/04/18 01:19:05;;;;;;;29.85;18.75;;;7.90;99.90;;;;;;7579676;19;20024;-74
2023/04/18 01:21:42;;;;;;;33.80;18.70;;;7.90;99.90;;;;;;7570432;19;20014;-75
2023/04/18 01:24:17;;;;;;;31.25;17.20;;;7.90;99.90;;;;;;7568947;19;20043;-74
2023/04/18 01:26:49;;;;;;;30.10;18.58;;;7.90;99.90;;;;;;7585809;19;20025;-74
2023/04/18 01:29:22;;;;;;;30.20;18.63;;;7.80;99.90;;;;;;7575444;19;20483;-75
2023/04/18 01:31:54;;;;;;;28.92;19.23;;;7.80;99.90;;;;;;7592036;19;20014;-74
2023/04/18 01:34:26;;;;;;;32.90;18.55;;;7.80;99.90;;;;;;7577030;19;20085;-74
2023/04/18 01:36:58;;;;;;;27.40;17.45;;;7.80;99.90;;;;;;7585512;19;20021;-73
2023/04/18 01:39:30;;;;;;;30.60;18.52;;;7.90;99.90;;;;;;7584745;19;20945;-74
2023/04/18 01:42:02;;;;;;;27.95;18.17;;;7.80;99.90;;;;;;7575248;19;20022;-74
2023/04/18 01:44:35;;;;;;;29.80;18.45;;;7.80;99.90;;;;;;7585693;19;20046;-74
2023/04/18 01:47:07;;;;;;;29.08;18.73;;;7.80;99.90;;;;;;7589786;19;20023;-73
2023/04/18 01:49:41;;;;;;;30.40;19.33;;;7.80;99.90;;;;;;7591175;19;20022;-73
2023/04/18 01:52:13;;;;;;;33.00;19.33;;;7.80;99.90;;;;;;7588884;19;20010;-73
2023/04/18 01:54:46;;;;;;;30.70;19.53;;;7.90;99.90;;;;;;7583314;19;20033;-74
2023/04/18 01:57:18;;;;;;;28.30;17.83;;;7.80;99.90;;;;;;7576550;19;20015;-73
2023/04/18 01:59:50;;;;;;;32.45;19.48;;;7.80;99.90;;;;;;7587379;19;20119;-74
2023/04/18 02:02:23;;;;;;;31.23;18.88;;;7.80;99.90;;;;;;7586478;19;20386;-73
2023/04/18 02:04:56;;;;;;;29.77;19.20;;;7.80;99.90;;;;;;7560764;19;20019;-76
2023/04/18 02:07:28;;;;;;;32.35;19.70;;;7.80;99.90;;;;;;7581509;19;20607;-74
2023/04/18 02:10:01;;;;;;;30.40;18.55;;;7.80;99.90;;;;;;7587866;19;20018;-74
2023/04/18 02:12:34;;;;;;;35.95;20.38;;;7.80;99.90;;;;;;7587658;19;20018;-74
2023/04/18 02:15:07;;;;;;;31.83;19.20;;;7.80;99.90;;;;;;7583858;19;20098;-75
2023/04/18 02:17:40;;;;;;;;;;;7.80;99.90;;;;;;7579342;19;20015;-75
2023/04/18 02:20:13;;;;;;;31.00;19.13;;;7.90;99.90;;;;;;7581384;19;19929;-75
2023/04/18 02:22:46;;;;;;;32.20;19.88;;;7.80;99.90;;;;;;7586199;19;20015;-74
2023/04/18 02:25:22;;;;;;;32.95;20.00;;;7.80;99.90;;;;;;7583374;19;20896;-75
2023/04/18 02:27:56;;;;;;;31.25;19.83;;;7.80;99.90;;;;;;7554266;19;20017;-74
2023/04/18 02:30:28;;;;;;;36.47;20.27;;;7.80;99.90;;;;;;7578449;19;20026;-74
2023/04/18 02:33:00;;;;;;;32.95;19.73;;;7.80;99.90;;;;;;7580764;19;20363;-74
2023/04/18 02:35:32;;;;;;;33.00;20.88;;;7.80;99.90;;;;;;7580319;19;20018;-75
2023/04/18 02:38:05;;;;;;;34.00;19.98;;;7.80;99.90;;;;;;7576723;19;20006;-74
2023/04/18 02:40:37;;;;;;;31.63;20.48;;;7.80;99.90;;;;;;7581842;19;20022;-73
2023/04/18 02:43:09;;;;;;;34.65;20.80;;;7.80;99.90;;;;;;7583077;19;22077;-74
2023/04/18 02:45:41;;;;;;;33.80;21.05;;;7.80;99.90;;;;;;7576247;19;21014;-74
2023/04/18 02:48:14;;;;;;;39.15;22.52;;;7.70;99.90;;;;;;7571081;19;20085;-74
2023/04/18 02:50:48;;;;;;;37.72;21.65;;;7.70;99.90;;;;;;7578175;19;20629;-74
2023/04/18 02:53:22;;;;;;;40.08;22.75;;;7.70;99.90;;;;;;7565143;19;20700;-74
2023/04/18 02:55:58;;;;;;;37.80;21.45;;;7.80;99.90;;;;;;7573178;19;20022;-74
2023/04/18 02:58:41;;;;;;;32.93;20.77;;;7.70;99.90;;;;;;7573465;19;20652;-74
2023/04/18 03:01:34;;;;;;;36.10;21.57;;;7.70;99.90;;;;;;7564806;19;20240;-75
2023/04/18 03:04:13;;;;;;;37.45;21.52;;;7.70;99.90;;;;;;7550132;19;20338;-74
2023/04/18 03:06:48;;;;;;;33.60;20.00;;;7.70;99.90;;;;;;7584337;19;20025;-74
2023/04/18 03:09:21;;;;;;;;;;;7.70;99.90;;;;;;7567047;19;20046;-74
2023/04/18 03:12:01;;;;;;;38.05;21.13;;;7.70;99.90;;;;;;7580500;19;20408;-74
2023/04/18 03:14:34;;;;;;;39.17;21.50;;;7.70;99.90;;;;;;7572057;19;20055;-74
2023/04/18 03:17:07;;;;;;;36.95;21.33;;;7.70;99.90;;;;;;7573843;19;20530;-74
2023/04/18 03:19:45;;;;;;;37.47;21.85;;;7.70;99.90;;;;;;7591193;19;20010;-74
2023/04/18 03:22:19;;;;;;;42.17;21.25;;;7.70;99.90;;;;;;7565234;19;20323;-75
2023/04/18 03:24:58;;;;;;;39.75;22.92;;;7.60;99.90;;;;;;7594948;19;20033;-74
2023/04/18 03:27:47;;;;;;;41.20;23.15;;;7.70;99.90;;;;;;7588568;19;20018;-74
2023/04/18 03:30:22;;;;;;;37.28;22.67;;;7.70;99.90;;;;;;7579864;19;20022;-75
2023/04/18 03:33:01;;;;;;;40.13;23.20;;;7.70;99.90;;;;;;7591802;19;20026;-74
2023/04/18 03:35:34;;;;;;;38.65;23.58;;;7.70;99.90;;;;;;7588945;19;20690;-73
2023/04/18 03:38:06;;;;;;;43.70;23.83;;;7.60;99.90;;;;;;7586119;19;20525;-75
2023/04/18 03:40:43;;;;;;;37.65;22.55;;;7.60;99.90;;;;;;7581442;19;20018;-75
2023/04/18 03:43:23;;;;;;;41.40;23.30;;;7.70;99.90;;;;;;7543585;19;20087;-74
2023/04/18 03:45:56;;;;;;;41.60;23.58;;;7.60;99.90;;;;;;7568702;19;20017;-76
2023/04/18 03:48:29;;;;;;;43.70;24.92;;;7.60;99.90;;;;;;7561186;19;20502;-75
2023/04/18 03:51:05;;;;;;;47.45;24.13;;;7.60;99.90;;;;;;7571507;19;20059;-75
2023/04/18 03:53:39;;;;;;;46.38;25.17;;;7.60;99.90;;;;;;7570011;19;20022;-75
2023/04/18 03:56:11;;;;;;;46.40;24.77;;;7.60;99.90;;;;;;7577499;19;20030;-75
2023/04/18 03:58:53;;;;;;;46.45;26.27;;;7.60;99.90;;;;;;7579345;19;20116;-74
2023/04/18 04:01:26;;;;;;;47.28;24.90;;;7.50;99.90;;;;;;7543003;19;20034;-75
2023/04/18 04:04:00;;;;;;;42.60;24.27;;;7.50;99.90;;;;;;7567588;19;20090;-75
2023/04/18 04:06:33;;;;;;;41.05;23.02;;;7.50;99.90;;;;;;7563540;19;22462;-74
2023/04/18 04:09:06;;;;;;;46.88;25.63;;;7.50;99.90;;;;;;7554321;19;20015;-74
2023/04/18 04:11:40;;;;;;;48.28;24.70;;;7.50;99.90;;;;;;7551894;19;20364;-74
2023/04/18 04:14:15;;;;;;;51.58;27.33;;;7.50;99.90;;;;;;7545430;19;20018;-74
2023/04/18 04:16:50;;;;;;;45.05;24.55;;;7.50;99.90;;;;;;7519094;19;20751;-74
2023/04/18 04:19:24;;;;;;;49.00;25.63;;;7.50;99.90;;;;;;7554152;19;20018;-74
2023/04/18 04:22:06;;;;;;;48.70;26.08;;;7.50;99.90;;;;;;7565798;19;20025;-74
2023/04/18 04:24:39;;;;;;;49.30;25.57;;;7.50;99.90;;;;;;7547292;19;20015;-74
2023/04/18 04:27:13;;;;;;;50.47;26.57;;;7.50;99.90;;;;;;7564118;19;20873;-74
2023/04/18 04:29:48;;;;;;;46.13;25.33;;;7.50;99.90;;;;;;7541455;19;20454;-74
2023/04/18 04:32:23;;;;;;;46.75;25.08;;;7.50;99.90;;;;;;7535049;19;20019;-74
2023/04/18 04:34:58;;;;;;;53.03;27.55;;;7.50;99.90;;;;;;7556484;19;20491;-74
2023/04/18 04:37:32;;;;;;;50.38;26.48;;;7.50;99.90;;;;;;7573474;19;20493;-74
2023/04/18 04:40:18;;;;;;;49.45;26.80;;;7.50;99.90;;;;;;7542507;19;20027;-74
2023/04/18 04:42:57;;;;;;;52.72;27.95;;;7.50;99.90;;;;;;7538134;19;20023;-74
2023/04/18 04:45:38;;;;;;;47.53;25.83;;;7.50;99.90;;;;;;7558369;19;20026;-74
2023/04/18 04:48:10;;;;;;;48.53;27.15;;;7.50;99.90;;;;;;7577370;19;20049;-75
2023/04/18 04:50:53;;;;;;;47.00;25.75;;;7.50;99.90;;;;;;7568006;19;20059;-75
2023/04/18 04:53:29;;;;;;;;;;;7.60;99.90;;;;;;7541895;19;20022;-75
2023/04/18 04:56:03;;;;;;;46.53;25.50;;;7.50;99.90;;;;;;7542725;19;19963;-74
2023/04/18 04:58:37;;;;;;;47.35;25.05;;;7.60;99.90;;;;;;7551559;19;20033;-75
2023/04/18 05:01:17;;;;;;;45.85;26.00;;;7.60;99.90;;;;;;7537705;19;20018;-75
2023/04/18 05:03:51;;;;;;;49.42;27.65;;;7.60;99.90;;;;;;7545818;19;20014;-75
2023/04/18 05:06:24;;;;;;;48.47;27.33;;;7.60;99.90;;;;;;7543382;19;20021;-74
2023/04/18 05:08:59;;;;;;;50.83;27.83;;;7.60;99.90;;;;;;7562852;19;20014;-74
2023/04/18 05:11:31;;;;;;;49.22;27.15;;;7.50;99.90;;;;;;7544645;19;20178;-74
2023/04/18 05:14:04;;;;;;;51.50;27.23;;;7.60;99.90;;;;;;7558847;19;20014;-73
2023/04/18 05:16:36;;;;;;;47.20;25.88;;;7.60;99.90;;;;;;7545359;19;20021;-74
2023/04/18 05:19:08;;;;;;;44.30;25.90;;;7.70;99.90;;;;;;7553623;19;20018;-74
2023/04/18 05:21:41;;;;;;;52.25;27.15;;;7.70;99.90;;;;;;7550581;19;20606;-74
2023/04/18 05:24:13;;;;;;;49.17;26.67;;;7.70;99.90;;;;;;7544907;19;21267;-73
2023/04/18 05:26:45;;;;;;;50.70;27.52;;;7.60;99.90;;;;;;7534398;19;20672;-74
2023/04/18 05:29:17;;;;;;;49.13;27.23;;;7.70;99.90;;;;;;7555841;19;20032;-74
2023/04/18 05:31:50;;;;;;;52.25;28.73;;;7.70;99.90;;;;;;7557319;19;20646;-74
2023/04/18 05:34:22;;;;;;;47.80;26.20;;;7.70;99.90;;;;;;7545429;19;20014;-74
2023/04/18 05:36:55;;;;;;;47.10;27.42;;;7.80;99.90;;;;;;7590692;19;20848;-74
2023/04/18 05:39:27;;;;;;;48.40;25.50;;;7.70;99.90;;;;;;7584377;19;20021;-73
2023/04/18 05:42:01;;;;;;;47.15;26.92;;;7.90;99.90;;;;;;7588908;19;20542;-73
2023/04/18 05:44:33;;;;;;;49.22;27.00;;;7.80;99.90;;;;;;7578698;19;20032;-74
2023/04/18 05:47:05;;;;;;;47.53;26.63;;;7.80;99.90;;;;;;7573206;19;20051;-74
2023/04/18 05:49:37;;;;;;;47.40;26.90;;;7.90;99.90;;;;;;7578436;19;20014;-73
2023/04/18 05:52:10;;;;;;;48.35;26.17;;;8.00;99.90;;;;;;7575506;19;20909;-73
2023/04/18 05:54:42;;;;;;;47.58;27.25;;;8.00;99.90;;;;;;7570726;19;20018;-69
2023/04/18 05:57:14;;;;;;;47.08;26.13;;;8.00;99.90;;;;;;7559136;19;20019;-70
2023/04/18 05:59:47;;;;;;;43.47;25.08;;;8.00;99.90;;;;;;7571779;19;21300;-71
2023/04/18 06:02:19;;;;;;;42.67;23.98;;;8.10;99.90;;;;;;7554658;19;20518;-72
2023/04/18 06:04:52;;;;;;;41.63;24.05;;;8.20;99.90;;;;;;7588669;19;20059;-70
2023/04/18 06:07:25;;;;;;;50.10;26.63;;;8.20;99.90;;;;;;7557533;19;20014;-69
2023/04/18 06:09:57;;;;;;;42.45;24.67;;;8.20;99.90;;;;;;7566931;19;20033;-70
2023/04/18 06:12:29;;;;;;;45.78;25.38;;;8.20;99.90;;;;;;7553822;19;20314;-75
2023/04/18 06:15:02;;;;;;;46.17;25.35;;;8.30;99.90;;;;;;7565107;19;20651;-75
2023/04/18 06:17:35;;;;;;;41.50;24.75;;;8.40;99.90;;;;;;7556612;19;20018;-75
2023/04/18 06:20:08;;;;;;;44.72;25.33;;;8.40;99.90;;;;;;7572276;19;20014;-74
2023/04/18 06:22:41;;;;;;;39.08;22.75;;;8.50;99.90;;;;;;7550163;19;20972;-75
2023/04/18 06:25:14;;;;;;;39.35;23.00;;;8.70;99.90;;;;;;7550719;19;20105;-74
2023/04/18 06:27:46;;;;;;;40.33;23.40;;;8.70;99.90;;;;;;7562839;19;20517;-74
2023/04/18 06:30:20;;;;;;;38.80;23.42;;;8.70;99.90;;;;;;7584733;19;20097;-74
2023/04/18 06:32:53;;;;;;;37.17;22.15;;;8.70;99.90;;;;;;7590759;19;20018;-74
2023/04/18 06:35:25;;;;;;;45.63;23.13;;;8.80;99.90;;;;;;7587232;19;20033;-75
2023/04/18 06:37:58;;;;;;;40.88;23.52;;;8.80;99.90;;;;;;7583682;19;20490;-75
2023/04/18 06:40:30;;;;;;;35.47;21.73;;;8.90;99.90;;;;;;7600988;19;20652;-74
2023/04/18 06:43:02;;;;;;;39.58;22.02;;;9.00;99.90;;;;;;7577902;19;20568;-76
2023/04/18 06:45:34;;;;;;;36.22;21.67;;;9.10;99.90;;;;;;7591937;19;20026;-74
2023/04/18 06:48:09;;;;;;;37.33;20.00;;;9.20;99.90;;;;;;7591023;19;20018;-74
2023/04/18 06:50:42;;;;;;;35.22;21.42;;;9.20;99.90;;;;;;7594342;19;20029;-76
2023/04/18 06:53:14;;;;;;;32.22;19.25;;;9.30;99.90;;;;;;7600156;19;21216;-74
2023/04/18 06:55:47;;;;;;;35.60;21.20;;;9.30;99.90;;;;;;7585156;19;20440;-76
2023/04/18 06:58:19;;;;;;;36.45;20.55;;;9.40;99.90;;;;;;7592291;19;20938;-75
2023/04/18 07:00:51;;;;;;;32.90;20.33;;;9.40;99.90;;;;;;7590725;19;20787;-76
2023/04/18 07:03:24;;;;;;;34.13;20.77;;;9.40;99.90;;;;;;7596303;19;20096;-74
2023/04/18 07:05:56;;;;;;;33.13;20.25;;;9.40;99.90;;;;;;7594803;19;20049;-76
2023/04/18 07:08:28;;;;;;;37.10;20.90;;;9.40;99.90;;;;;;7586943;19;20025;-76
2023/04/18 07:11:00;;;;;;;36.97;21.75;;;9.40;99.90;;;;;;7589048;19;20634;-75
2023/04/18 07:13:33;;;;;;;36.80;21.23;;;9.40;99.90;;;;;;7583511;19;20051;-75
2023/04/18 07:16:05;;;;;;;38.58;20.65;;;9.40;99.90;;;;;;7589110;19;20482;-76
2023/04/18 07:18:38;;;;;;;34.70;21.00;;;9.40;99.90;;;;;;7592606;19;20034;-75
2023/04/18 07:21:10;;;;;;;36.20;21.63;;;9.30;99.90;;;;;;7590398;19;20015;-74
2023/04/18 07:23:43;;;;;;;34.78;22.08;;;9.40;99.90;;;;;;7597698;19;20038;-74
2023/04/18 07:26:15;;;;;;;34.33;20.75;;;9.40;99.90;;;;;;7584583;19;20022;-76
2023/04/18 07:28:48;;;;;;;32.63;20.95;;;9.40;99.90;;;;;;7576346;19;20014;-75
2023/04/18 07:31:20;;;;;;;34.47;21.07;;;9.40;99.90;;;;;;7597352;19;20439;-76
2023/04/18 07:33:54;;;;;;;33.47;20.90;;;9.30;99.90;;;;;;7589819;19;20022;-75
2023/04/18 07:36:27;;;;;;;31.85;20.40;;;9.20;99.90;;;;;;7590198;19;20049;-75
2023/04/18 07:39:00;;;;;;;35.78;21.15;;;9.20;99.90;;;;;;7600484;19;20059;-75
2023/04/18 07:41:33;;;;;;;34.55;21.42;;;9.20;99.90;;;;;;7586776;19;20014;-76
2023/04/18 07:44:05;;;;;;;34.53;20.67;;;9.30;99.90;;;;;;7597426;19;20891;-74
2023/04/18 07:46:38;;;;;;;31.60;19.90;;;9.40;99.90;;;;;;7584765;19;20019;-75
2023/04/18 07:49:10;;;;;;;29.33;19.08;;;9.50;99.90;;;;;;7596365;19;20026;-75
2023/04/18 07:51:42;;;;;;;34.72;20.63;;;9.50;99.90;;;;;;7585930;19;20530;-75
2023/04/18 07:54:14;;;;;;;30.65;18.38;;;9.60;99.90;;;;;;7555218;19;20035;-75
2023/04/18 07:56:46;;;;;;;30.15;18.67;;;9.90;99.90;;;;;;7572909;19;20020;-75
2023/04/18 07:59:19;;;;;;;32.50;19.20;;;10.00;99.90;;;;;;7577430;19;20019;-74
2023/04/18 08:01:51;;;;;;;31.15;18.42;;;10.10;99.90;;;;;;7576500;19;20018;-75
2023/04/18 08:04:23;;;;;;;27.25;16.90;;;10.20;99.90;;;;;;7589791;19;20019;-75
2023/04/18 08:06:59;;;;;;;26.88;16.27;;;10.10;99.90;;;;;;7569394;19;20307;-75
2023/04/18 08:09:31;;;;;;;27.13;16.92;;;10.00;99.90;;;;;;7580548;19;20018;-74
2023/04/18 08:12:03;;;;;;;25.88;16.42;;;10.00;99.90;;;;;;7581029;19;20033;-76
2023/04/18 08:14:36;;;;;;;25.83;16.55;;;9.90;99.90;;;;;;7593507;19;20368;-75
2023/04/18 08:17:08;;;;;;;26.17;16.42;;;9.90;99.90;;;;;;7595793;19;20025;-75
2023/04/18 08:19:41;;;;;;;29.88;18.13;;;9.90;99.90;;;;;;7585107;19;20051;-75
2023/04/18 08:22:13;;;;;;;28.05;16.92;;;9.90;99.90;;;;;;7597601;19;20022;-75
2023/04/18 08:24:45;;;;;;;27.38;17.60;;;9.80;99.90;;;;;;7591716;19;20015;-75
2023/04/18 08:27:34;;;;;;;32.53;19.25;;;9.80;99.90;;;;;;7567134;19;20021;-74
2023/04/18 08:30:08;;;;;;;28.92;17.60;;;9.70;99.90;;;;;;7586527;19;20706;-75
2023/04/18 08:32:40;;;;;;;27.92;16.60;;;9.70;99.90;;;;;;7435393;19;2743506;-75
2023/04/18 08:35:13;;;;;;;26.02;17.08;;;9.70;99.90;;;;;;7588854;19;20046;-76
2023/04/18 08:37:45;;;;;;;30.42;17.95;;;9.70;99.90;;;;;;7523099;19;20915;-75
2023/04/18 08:40:18;;;;;;;28.73;17.73;;;9.60;99.90;;;;;;7571773;19;20700;-76
2023/04/18 08:42:52;;;;;;;29.88;18.85;;;9.50;99.90;;;;;;7585178;19;20026;-75
2023/04/18 08:45:25;;;;;;;34.03;18.42;;;9.50;99.90;;;;;;7555838;19;20021;-74
2023/04/18 08:48:00;;;;;;;30.48;17.60;;;9.40;99.90;;;;;;7571214;19;20016;-75
2023/04/18 08:50:32;;;;;;;25.98;17.48;;;9.40;99.90;;;;;;7556593;19;20019;-76
2023/04/18 08:53:05;;;;;;;30.70;17.98;;;9.40;99.90;;;;;;7571450;19;20090;-75
2023/04/18 08:55:37;;;;;;;31.42;19.15;;;9.40;99.90;;;;;;7574650;19;20045;-75
2023/04/18 08:58:11;;;;;;;30.80;19.02;;;9.50;99.90;;;;;;7570462;19;20034;-75
2023/04/18 09:00:49;;;;;;;35.63;19.63;;;9.50;99.90;;;;;;7564880;19;20022;-75
2023/04/18 09:03:41;;;;;;;31.00;18.45;;;9.50;99.90;;;;;;7564016;19;20018;-74
2023/04/18 09:06:17;;;;;;;34.30;20.10;;;9.50;99.90;;;;;;7549583;19;20034;-76
2023/04/18 09:09:01;;;;;;;37.83;21.80;;;9.60;99.90;;;;;;7574105;19;20019;-75
2023/04/18 09:11:34;;;;;;;34.88;21.10;;;9.60;99.90;;;;;;7579537;19;20022;-76
2023/04/18 09:14:06;;;;;;;31.30;19.83;;;9.70;99.90;;;;;;7572352;19;20018;-74
2023/04/18 09:16:49;;;;;;;33.40;19.02;;;9.70;99.90;;;;;;7588775;19;20096;-75
2023/04/18 09:19:22;;;;;;;35.50;21.10;;;9.70;99.90;;;;;;7557820;19;20708;-75
2023/04/18 09:21:59;;;;;;;31.48;18.65;;;9.80;99.90;;;;;;7590936;19;20029;-75
2023/04/18 09:24:33;;;;;;;34.72;19.58;;;9.70;99.90;;;;;;7603743;19;20054;-75
2023/04/18 09:27:10;;;;;;;;;;;9.70;99.90;;;;;;7586782;19;20592;-75
2023/04/18 09:29:48;;;;;;;33.85;19.85;;;9.70;99.90;;;;;;7587161;19;19934;-75
2023/04/18 09:32:27;;;;;;;31.52;19.27;;;9.80;99.90;;;;;;7592527;19;20015;-76
2023/04/18 09:35:03;;;;;;;31.38;19.25;;;9.80;99.90;;;;;;7589478;19;20922;-75
2023/04/18 09:37:36;;;;;;;29.48;18.35;;;9.80;99.90;;;;;;7555428;19;20025;-75
2023/04/18 09:40:19;;;;;;;31.25;18.60;;;9.80;99.90;;;;;;7565105;19;20014;-75
2023/04/18 09:42:53;;;;;;;31.58;18.50;;;9.80;99.90;;;;;;7568902;19;20014;-75
2023/04/18 09:45:25;;;;;;;28.00;17.58;;;9.90;99.90;;;;;;7561721;19;20284;-75
2023/04/18 09:47:58;;;;;;;26.83;16.98;;;10.00;99.90;;;;;;7555095;19;20022;-75
2023/04/18 09:50:31;;;;;;;25.55;17.05;;;10.00;99.90;;;;;;7559733;19;20027;-75
2023/04/18 09:53:04;;;;;;;;;;;10.10;99.90;;;;;;7569065;19;20510;-75
2023/04/18 09:55:37;;;;;;;29.15;16.42;;;10.30;99.90;;;;;;7559017;19;22435;-75
2023/04/18 09:58:10;;;;;;;28.67;17.15;;;10.20;99.90;;;;;;7560546;19;20018;-75
2023/04/18 10:00:45;;;;;;;28.85;16.23;;;10.30;99.90;;;;;;7565687;19;20095;-76
2023/04/18 10:03:18;;;;;;;26.75;16.30;;;10.30;99.90;;;;;;7584427;19;20574;-74
2023/04/18 10:05:51;;;;;;;27.60;17.33;;;10.20;99.90;;;;;;7597319;19;20044;-74
2023/04/18 10:08:24;;;;;;;30.70;17.27;;;10.20;99.90;;;;;;7577201;19;20022;-76
2023/04/18 10:10:57;;;;;;;26.73;16.33;;;10.20;99.90;;;;;;7571910;19;21195;-75
2023/04/18 10:13:33;;;;;;;26.42;16.63;;;10.30;99.90;;;;;;7576941;19;20082;-76
2023/04/18 10:16:06;;;;;;;26.17;15.77;;;10.30;99.90;;;;;;7586473;19;20023;-75
2023/04/18 10:18:38;;;;;;;27.48;15.88;;;10.30;99.90;;;;;;7591718;19;20096;-75
2023/04/18 10:21:10;;;;;;;28.67;16.77;;;10.40;99.90;;;;;;7589558;19;20022;-75
2023/04/18 10:23:44;;;;;;;26.52;16.30;;;10.50;99.90;;;;;;7584637;19;20018;-75
2023/04/18 10:26:16;;;;;;;28.45;17.20;;;10.60;99.90;;;;;;7589072;19;20074;-76
2023/04/18 10:28:57;;;;;;;28.90;16.33;;;10.60;99.90;;;;;;7583957;19;20022;-75
2023/04/18 10:31:38;;;;;;;30.45;17.48;;;10.60;99.90;;;;;;7595272;19;20053;-75
2023/04/18 10:34:16;;;;;;;28.33;16.95;;;10.60;99.90;;;;;;7531310;19;24176;-74
2023/04/18 10:37:03;;;;;;;30.17;17.85;;;10.50;99.90;;;;;;7566365;19;20018;-76
2023/04/18 10:39:56;;;;;;;27.65;17.45;;;10.40;99.90;;;;;;7572595;19;20014;-75
2023/04/18 10:42:46;;;;;;;25.40;16.75;;;10.60;99.90;;;;;;7572668;19;20063;-75
2023/04/18 10:45:23;;;;;;;27.05;16.17;;;10.80;99.90;;;;;;7577183;19;20011;-76
2023/04/18 10:48:23;;;;;;;27.20;15.57;;;11.00;99.90;;;;;;7557643;19;20014;-76
2023/04/18 10:51:18;;;;;;;27.33;16.17;;;11.10;99.90;;;;;;7536916;19;20048;-75
2023/04/18 10:53:58;;;;;;;28.95;16.42;;;11.10;99.90;;;;;;7547903;19;20352;-75
2023/04/18 10:56:30;;;;;;;27.90;15.52;;;11.30;99.90;;;;;;7546277;19;20014;-74
2023/04/18 10:59:03;;;;;;;31.48;16.70;;;11.30;99.90;;;;;;7548607;19;20011;-76
2023/04/18 11:01:36;;;;;;;30.83;16.17;;;11.30;99.90;;;;;;7565563;19;20066;-75
2023/04/18 11:04:12;;;;;;;;;;;11.50;99.90;;;;;;7558690;19;20010;-75
2023/04/18 11:06:57;;;;;;;23.77;15.00;;;11.70;99.90;;;;;;7549224;19;19927;-76
2023/04/18 11:09:29;;;;;;;22.85;15.82;;;12.00;99.90;;;;;;7563637;19;21045;-76
2023/04/18 11:12:08;;;;;;;22.85;15.18;;;12.10;99.90;;;;;;7540251;19;21330;-75
2023/04/18 11:14:45;;;;;;;25.23;13.77;;;12.20;99.90;;;;;;7556676;19;20010;-75
2023/04/18 11:17:18;;;;;;;22.02;13.55;;;11.90;99.90;;;;;;7529552;19;20018;-75
2023/04/18 11:20:00;;;;;;;21.45;13.45;;;11.70;99.90;;;;;;7550554;19;21570;-75
2023/04/18 11:22:42;;;;;;;24.98;14.60;;;11.40;99.90;;;;;;7569582;19;20067;-76
2023/04/18 11:25:15;;;;;;;21.55;14.35;;;11.20;99.90;;;;;;7562811;19;20022;-75
2023/04/18 11:27:50;;;;;;;21.20;13.93;;;10.90;99.90;;;;;;7566830;19;20014;-75
2023/04/18 11:30:22;;;;;;;22.02;13.38;;;11.00;99.90;;;;;;7559894;19;20018;-77
2023/04/18 11:32:55;;;;;;;22.05;13.60;;;11.00;99.90;;;;;;7588151;19;20045;-76
2023/04/18 11:35:27;;;;;;;20.23;12.68;;;11.10;99.90;;;;;;7580675;19;21031;-77
2023/04/18 11:38:00;;;;;;;19.48;12.05;;;11.30;99.90;;;;;;7586273;19;20026;-75
2023/04/18 11:40:32;;;;;;;20.25;13.20;;;11.30;99.90;;;;;;7583226;19;20029;-76
2023/04/18 11:43:05;;;;;;;20.02;13.02;;;11.30;99.90;;;;;;7582551;19;20026;-75
2023/04/18 11:45:37;;;;;;;23.65;14.05;;;11.30;99.90;;;;;;7592536;19;20025;-76
2023/04/18 11:48:10;;;;;;;20.33;13.40;;;11.40;99.90;;;;;;7574352;19;20021;-77
2023/04/18 11:50:42;;;;;;;20.75;13.32;;;11.50;99.90;;;;;;7514506;19;21653;-75
2023/04/18 11:53:30;;;;;;;18.40;11.25;;;11.60;99.90;;;;;;7508933;19;22634;-74
2023/04/18 11:56:03;;;;;;;19.25;12.50;;;11.80;99.90;;;;;;7526178;19;20022;-73
2023/04/18 11:58:36;;;;;;;18.42;11.13;;;11.80;99.90;;;;;;7517848;19;20067;-72
2023/04/18 12:01:21;;;;;;;16.63;10.93;;;11.80;99.90;;;;;;7537289;19;20047;-72
2023/04/18 12:04:04;;;;;;;16.45;10.65;;;11.80;99.90;;;;;;7566323;19;20014;-73
2023/04/18 12:06:51;;;;;;;16.85;10.57;;;11.80;99.90;;;;;;7562633;19;20022;-72
2023/04/18 12:09:24;;;;;;;18.52;11.32;;;11.70;99.90;;;;;;7537741;19;20101;-73
2023/04/18 12:12:01;;;;;;;16.38;10.25;;;11.70;99.90;;;;;;7548674;19;20019;-73
2023/04/18 12:14:35;;;;;;;15.38;9.30;;;11.80;99.90;;;;;;7549290;19;20014;-73
2023/04/18 12:17:07;;;;;;;14.95;9.73;;;11.90;99.90;;;;;;7548914;19;20652;-75
2023/04/18 12:19:44;;;;;;;14.23;9.95;;;11.80;99.90;;;;;;7574393;19;20010;-73
2023/04/18 12:22:36;;;;;;;18.45;10.80;;;11.70;99.90;;;;;;7557365;19;20021;-73
2023/04/18 12:25:09;;;;;;;14.48;9.27;;;11.70;99.90;;;;;;7567234;19;20129;-73
2023/04/18 12:28:00;;;;;;;15.60;9.47;;;11.80;99.90;;;;;;7515619;19;20010;-73
2023/04/18 12:30:33;;;;;;;15.30;9.73;;;11.90;99.90;;;;;;7542661;19;20021;-73
2023/04/18 12:33:08;;;;;;;14.25;8.98;;;12.00;99.90;;;;;;7534245;19;20044;-73
2023/04/18 12:35:41;;;;;;;15.40;9.02;;;11.90;99.90;;;;;;7537150;19;20026;-72
2023/04/18 12:38:13;;;;;;;15.13;8.77;;;11.90;99.90;;;;;;7528581;19;21088;-72
2023/04/18 12:40:45;;;;;;;15.25;8.85;;;12.00;99.90;;;;;;7540414;19;20049;-72
2023/04/18 12:43:18;;;;;;;14.90;8.55;;;12.00;99.90;;;;;;7556809;19;20014;-72
2023/04/18 12:45:51;;;;;;;12.85;8.20;;;11.90;99.90;;;;;;7522325;19;20018;-74
2023/04/18 12:48:23;;;;;;;12.48;8.35;;;11.90;99.90;;;;;;7507276;19;20007;-72
2023/04/18 12:50:55;;;;;;;16.75;9.05;;;11.80;99.90;;;;;;7545108;19;20023;-72
2023/04/18 12:53:28;;;;;;;14.63;8.73;;;11.80;99.90;;;;;;7543640;19;20018;-74
2023/04/18 12:56:01;;;;;;;15.38;8.93;;;11.80;99.90;;;;;;7547693;19;20018;-73
2023/04/18 12:58:33;;;;;;;12.00;8.18;;;12.00;99.90;;;;;;7562656;19;20029;-74
2023/04/18 13:01:06;;;;;;;12.73;8.13;;;12.30;99.90;;;;;;7556630;19;20019;-74
2023/04/18 13:03:38;;;;;;;12.45;8.30;;;12.40;99.90;;;;;;7572426;19;20025;-72
2023/04/18 13:06:11;;;;;;;16.05;8.98;;;12.40;99.90;;;;;;7563817;19;20014;-73
2023/04/18 13:08:46;;;;;;;14.40;9.20;;;12.30;99.90;;;;;;7573705;19;20010;-73
2023/04/18 13:11:19;;;;;;;14.65;9.52;;;12.20;99.90;;;;;;7575430;19;20011;-73
2023/04/18 13:13:51;;;;;;;14.77;8.98;;;12.30;99.90;;;;;;7569178;19;20019;-73